sensor_id;sensor_type;location;lat;lon;timestamp;P1;durP1;ratioP1;P2;durP2;ratioP2
7110;SDS011;3597;42.650;23.386;2022-10-15T00:00:25;1.50;;;1.50;;
7110;SDS011;3597;42.650;23.386;2022-10-15T00:02:51;1.57;;;1.57;;
7110;SDS011;3597;42.650;23.386;2022-10-15T00:05:16;1.60;;;1.60;;
7110;SDS011;3597;42.650;23.386;2022-10-15T00:07:42;1.53;;;1.53;;
7110;SDS011;3597;42.650;23.386;2022-10-15T00:10:07;1.60;;;1.60;;
7110;SDS011;3597;42.650;23.386;2022-10-15T00:12:33;1.40;;;1.40;;
7110;SDS011;3597;42.650;23.386;2022-10-15T00:14:58;1.50;;;1.50;;
7110;SDS011;3597;42.650;23.386;2022-10-15T00:17:24;1.50;;;1.40;;
7110;SDS011;3597;42.650;23.386;2022-10-15T00:19:49;1.60;;;1.60;;
7110;SDS011;3597;42.650;23.386;2022-10-15T00:22:14;1.47;;;1.47;;
7110;SDS011;3597;42.650;23.386;2022-10-15T00:24:40;1.50;;;1.50;;
7110;SDS011;3597;42.650;23.386;2022-10-15T00:27:06;1.60;;;1.60;;
7110;SDS011;3597;42.650;23.386;2022-10-15T00:29:31;1.90;;;1.90;;
7110;SDS011;3597;42.650;23.386;2022-10-15T00:31:56;1.60;;;1.60;;
7110;SDS011;3597;42.650;23.386;2022-10-15T00:34:22;1.60;;;1.60;;
7110;SDS011;3597;42.650;23.386;2022-10-15T00:36:48;1.63;;;1.63;;
7110;SDS011;3597;42.650;23.386;2022-10-15T00:39:14;1.50;;;1.50;;
7110;SDS011;3597;42.650;23.386;2022-10-15T00:41:40;1.77;;;1.77;;
7110;SDS011;3597;42.650;23.386;2022-10-15T00:47:02;1.83;;;1.83;;
7110;SDS011;3597;42.650;23.386;2022-10-15T00:49:36;1.70;;;1.70;;
7110;SDS011;3597;42.650;23.386;2022-10-15T00:54:37;1.80;;;1.80;;
7110;SDS011;3597;42.650;23.386;2022-10-15T00:57:05;1.60;;;1.60;;
7110;SDS011;3597;42.650;23.386;2022-10-15T00:59:31;1.60;;;1.60;;
7110;SDS011;3597;42.650;23.386;2022-10-15T01:02:01;1.60;;;1.60;;
7110;SDS011;3597;42.650;23.386;2022-10-15T01:04:26;1.73;;;1.73;;
7110;SDS011;3597;42.650;23.386;2022-10-15T01:06:53;1.60;;;1.60;;
7110;SDS011;3597;42.650;23.386;2022-10-15T01:09:18;1.50;;;1.50;;
7110;SDS011;3597;42.650;23.386;2022-10-15T01:16:46;1.80;;;1.80;;
7110;SDS011;3597;42.650;23.386;2022-10-15T01:22:07;1.90;;;1.90;;
7110;SDS011;3597;42.650;23.386;2022-10-15T01:27:26;2.10;;;2.00;;
7110;SDS011;3597;42.650;23.386;2022-10-15T01:41:00;2.00;;;2.00;;
7110;SDS011;3597;42.650;23.386;2022-10-15T01:46:20;2.20;;;2.20;;
7110;SDS011;3597;42.650;23.386;2022-10-15T01:48:52;2.13;;;2.13;;
7110;SDS011;3597;42.650;23.386;2022-10-15T01:51:18;2.30;;;2.30;;
7110;SDS011;3597;42.650;23.386;2022-10-15T01:53:44;2.30;;;2.30;;
7110;SDS011;3597;42.650;23.386;2022-10-15T01:56:15;2.50;;;2.50;;
7110;SDS011;3597;42.650;23.386;2022-10-15T01:58:43;2.50;;;2.50;;
7110;SDS011;3597;42.650;23.386;2022-10-15T02:01:10;2.40;;;2.40;;
7110;SDS011;3597;42.650;23.386;2022-10-15T02:03:46;2.47;;;2.47;;
7110;SDS011;3597;42.650;23.386;2022-10-15T02:06:15;2.33;;;2.33;;
7110;SDS011;3597;42.650;23.386;2022-10-15T02:09:09;2.10;;;2.10;;
7110;SDS011;3597;42.650;23.386;2022-10-15T02:14:56;2.20;;;2.20;;
7110;SDS011;3597;42.650;23.386;2022-10-15T02:17:38;2.00;;;2.00;;
7110;SDS011;3597;42.650;23.386;2022-10-15T02:20:28;2.10;;;2.10;;
7110;SDS011;3597;42.650;23.386;2022-10-15T02:23:30;2.27;;;2.27;;
7110;SDS011;3597;42.650;23.386;2022-10-15T02:26:12;1.97;;;1.97;;
7110;SDS011;3597;42.650;23.386;2022-10-15T02:28:40;2.00;;;2.00;;
7110;SDS011;3597;42.650;23.386;2022-10-15T02:31:07;1.87;;;1.87;;
7110;SDS011;3597;42.650;23.386;2022-10-15T02:33:34;2.07;;;2.07;;
7110;SDS011;3597;42.650;23.386;2022-10-15T02:35:59;2.00;;;2.00;;
7110;SDS011;3597;42.650;23.386;2022-10-15T02:38:25;1.90;;;1.90;;
7110;SDS011;3597;42.650;23.386;2022-10-15T02:40:52;1.90;;;1.90;;
7110;SDS011;3597;42.650;23.386;2022-10-15T02:43:19;1.90;;;1.90;;
7110;SDS011;3597;42.650;23.386;2022-10-15T02:45:45;1.40;;;1.40;;
7110;SDS011;3597;42.650;23.386;2022-10-15T02:48:11;1.87;;;1.87;;
7110;SDS011;3597;42.650;23.386;2022-10-15T02:50:36;1.53;;;1.53;;
7110;SDS011;3597;42.650;23.386;2022-10-15T02:53:02;1.77;;;1.77;;
7110;SDS011;3597;42.650;23.386;2022-10-15T02:55:27;1.73;;;1.73;;
7110;SDS011;3597;42.650;23.386;2022-10-15T02:57:53;1.50;;;1.50;;
7110;SDS011;3597;42.650;23.386;2022-10-15T03:00:18;1.83;;;1.83;;
7110;SDS011;3597;42.650;23.386;2022-10-15T03:02:44;1.80;;;1.80;;
7110;SDS011;3597;42.650;23.386;2022-10-15T03:05:09;1.90;;;1.90;;
7110;SDS011;3597;42.650;23.386;2022-10-15T03:07:35;1.70;;;1.70;;
7110;SDS011;3597;42.650;23.386;2022-10-15T03:10:00;1.60;;;1.60;;
7110;SDS011;3597;42.650;23.386;2022-10-15T03:12:26;1.50;;;1.50;;
7110;SDS011;3597;42.650;23.386;2022-10-15T03:14:51;1.97;;;1.97;;
7110;SDS011;3597;42.650;23.386;2022-10-15T03:17:17;1.73;;;1.73;;
7110;SDS011;3597;42.650;23.386;2022-10-15T03:19:42;1.90;;;1.90;;
7110;SDS011;3597;42.650;23.386;2022-10-15T03:22:08;2.00;;;1.90;;
7110;SDS011;3597;42.650;23.386;2022-10-15T03:24:33;1.90;;;1.90;;
7110;SDS011;3597;42.650;23.386;2022-10-15T03:26:59;1.80;;;1.80;;
7110;SDS011;3597;42.650;23.386;2022-10-15T03:29:24;1.60;;;1.60;;
7110;SDS011;3597;42.650;23.386;2022-10-15T03:31:49;1.70;;;1.70;;
7110;SDS011;3597;42.650;23.386;2022-10-15T03:34:15;1.63;;;1.63;;
7110;SDS011;3597;42.650;23.386;2022-10-15T03:36:41;1.90;;;1.90;;
7110;SDS011;3597;42.650;23.386;2022-10-15T03:39:06;2.00;;;1.90;;
7110;SDS011;3597;42.650;23.386;2022-10-15T03:41:32;1.60;;;1.60;;
7110;SDS011;3597;42.650;23.386;2022-10-15T03:44:01;1.73;;;1.73;;
7110;SDS011;3597;42.650;23.386;2022-10-15T03:46:27;1.70;;;1.70;;
7110;SDS011;3597;42.650;23.386;2022-10-15T03:48:52;1.70;;;1.70;;
7110;SDS011;3597;42.650;23.386;2022-10-15T03:51:18;2.00;;;2.00;;
7110;SDS011;3597;42.650;23.386;2022-10-15T03:53:43;1.90;;;1.90;;
7110;SDS011;3597;42.650;23.386;2022-10-15T03:56:09;2.33;;;2.33;;
7110;SDS011;3597;42.650;23.386;2022-10-15T03:58:34;2.07;;;2.07;;
7110;SDS011;3597;42.650;23.386;2022-10-15T04:00:59;1.90;;;1.90;;
7110;SDS011;3597;42.650;23.386;2022-10-15T04:03:25;1.90;;;1.90;;
7110;SDS011;3597;42.650;23.386;2022-10-15T04:05:50;1.63;;;1.63;;
7110;SDS011;3597;42.650;23.386;2022-10-15T04:08:16;2.00;;;2.00;;
7110;SDS011;3597;42.650;23.386;2022-10-15T04:10:42;1.90;;;1.80;;
7110;SDS011;3597;42.650;23.386;2022-10-15T04:13:07;1.80;;;1.80;;
7110;SDS011;3597;42.650;23.386;2022-10-15T04:15:33;2.00;;;2.00;;
7110;SDS011;3597;42.650;23.386;2022-10-15T04:17:58;1.87;;;1.87;;
7110;SDS011;3597;42.650;23.386;2022-10-15T04:20:24;2.10;;;2.10;;
7110;SDS011;3597;42.650;23.386;2022-10-15T04:22:49;2.00;;;2.00;;
7110;SDS011;3597;42.650;23.386;2022-10-15T04:25:15;5.07;;;4.97;;
7110;SDS011;3597;42.650;23.386;2022-10-15T04:27:41;1.73;;;1.70;;
7110;SDS011;3597;42.650;23.386;2022-10-15T04:30:06;2.30;;;2.30;;
7110;SDS011;3597;42.650;23.386;2022-10-15T04:32:32;1.80;;;1.80;;
7110;SDS011;3597;42.650;23.386;2022-10-15T04:34:58;2.07;;;2.07;;
7110;SDS011;3597;42.650;23.386;2022-10-15T04:37:23;1.90;;;1.90;;
7110;SDS011;3597;42.650;23.386;2022-10-15T04:39:49;1.70;;;1.70;;
7110;SDS011;3597;42.650;23.386;2022-10-15T04:42:14;1.83;;;1.77;;
7110;SDS011;3597;42.650;23.386;2022-10-15T04:44:39;1.73;;;1.73;;
7110;SDS011;3597;42.650;23.386;2022-10-15T04:47:05;1.90;;;1.80;;
7110;SDS011;3597;42.650;23.386;2022-10-15T04:49:30;1.77;;;1.77;;
7110;SDS011;3597;42.650;23.386;2022-10-15T04:51:55;1.90;;;1.90;;
7110;SDS011;3597;42.650;23.386;2022-10-15T04:54:21;2.07;;;1.90;;
7110;SDS011;3597;42.650;23.386;2022-10-15T04:56:46;2.00;;;2.00;;
7110;SDS011;3597;42.650;23.386;2022-10-15T04:59:12;2.00;;;2.00;;
7110;SDS011;3597;42.650;23.386;2022-10-15T05:01:37;1.90;;;1.90;;
7110;SDS011;3597;42.650;23.386;2022-10-15T05:04:03;1.70;;;1.70;;
7110;SDS011;3597;42.650;23.386;2022-10-15T05:06:28;2.10;;;2.10;;
7110;SDS011;3597;42.650;23.386;2022-10-15T05:08:54;1.97;;;1.93;;
7110;SDS011;3597;42.650;23.386;2022-10-15T05:11:23;2.03;;;2.03;;
7110;SDS011;3597;42.650;23.386;2022-10-15T05:13:50;2.30;;;2.20;;
7110;SDS011;3597;42.650;23.386;2022-10-15T05:16:19;1.83;;;1.83;;
7110;SDS011;3597;42.650;23.386;2022-10-15T05:18:47;1.70;;;1.70;;
7110;SDS011;3597;42.650;23.386;2022-10-15T05:21:13;1.93;;;1.93;;
7110;SDS011;3597;42.650;23.386;2022-10-15T05:23:40;2.00;;;2.00;;
7110;SDS011;3597;42.650;23.386;2022-10-15T05:26:06;2.23;;;2.20;;
7110;SDS011;3597;42.650;23.386;2022-10-15T05:28:34;2.03;;;1.93;;
7110;SDS011;3597;42.650;23.386;2022-10-15T05:31:03;2.27;;;2.27;;
7110;SDS011;3597;42.650;23.386;2022-10-15T05:33:30;2.00;;;2.00;;
7110;SDS011;3597;42.650;23.386;2022-10-15T05:35:55;2.27;;;2.27;;
7110;SDS011;3597;42.650;23.386;2022-10-15T05:38:21;2.60;;;2.60;;
7110;SDS011;3597;42.650;23.386;2022-10-15T05:40:47;2.13;;;2.13;;
7110;SDS011;3597;42.650;23.386;2022-10-15T05:43:13;2.50;;;2.50;;
7110;SDS011;3597;42.650;23.386;2022-10-15T05:45:38;2.93;;;2.93;;
7110;SDS011;3597;42.650;23.386;2022-10-15T05:48:04;2.20;;;2.20;;
7110;SDS011;3597;42.650;23.386;2022-10-15T05:50:29;2.43;;;2.43;;
7110;SDS011;3597;42.650;23.386;2022-10-15T05:52:55;3.13;;;3.13;;
7110;SDS011;3597;42.650;23.386;2022-10-15T05:55:20;2.37;;;2.37;;
7110;SDS011;3597;42.650;23.386;2022-10-15T05:57:45;3.83;;;3.83;;
7110;SDS011;3597;42.650;23.386;2022-10-15T06:00:11;2.37;;;2.37;;
7110;SDS011;3597;42.650;23.386;2022-10-15T06:02:37;2.23;;;2.17;;
7110;SDS011;3597;42.650;23.386;2022-10-15T06:05:02;2.37;;;2.37;;
7110;SDS011;3597;42.650;23.386;2022-10-15T06:07:28;1.90;;;1.70;;
7110;SDS011;3597;42.650;23.386;2022-10-15T06:09:56;2.03;;;2.03;;
7110;SDS011;3597;42.650;23.386;2022-10-15T06:12:21;1.80;;;1.80;;
7110;SDS011;3597;42.650;23.386;2022-10-15T06:14:46;1.67;;;1.67;;
7110;SDS011;3597;42.650;23.386;2022-10-15T06:17:12;1.70;;;1.70;;
7110;SDS011;3597;42.650;23.386;2022-10-15T06:19:37;1.87;;;1.87;;
7110;SDS011;3597;42.650;23.386;2022-10-15T06:22:03;2.07;;;2.07;;
7110;SDS011;3597;42.650;23.386;2022-10-15T06:24:28;1.70;;;1.70;;
7110;SDS011;3597;42.650;23.386;2022-10-15T06:26:53;1.90;;;1.90;;
7110;SDS011;3597;42.650;23.386;2022-10-15T06:29:19;1.87;;;1.77;;
7110;SDS011;3597;42.650;23.386;2022-10-15T06:31:44;2.17;;;2.17;;
7110;SDS011;3597;42.650;23.386;2022-10-15T06:34:09;2.13;;;2.13;;
7110;SDS011;3597;42.650;23.386;2022-10-15T06:36:35;2.30;;;2.20;;
7110;SDS011;3597;42.650;23.386;2022-10-15T06:39:01;1.90;;;1.90;;
7110;SDS011;3597;42.650;23.386;2022-10-15T06:41:45;2.27;;;2.27;;
7110;SDS011;3597;42.650;23.386;2022-10-15T06:44:11;1.80;;;1.80;;
7110;SDS011;3597;42.650;23.386;2022-10-15T06:46:36;2.57;;;2.43;;
7110;SDS011;3597;42.650;23.386;2022-10-15T06:49:02;2.53;;;2.53;;
7110;SDS011;3597;42.650;23.386;2022-10-15T06:51:27;3.10;;;3.03;;
7110;SDS011;3597;42.650;23.386;2022-10-15T06:53:54;2.60;;;2.60;;
7110;SDS011;3597;42.650;23.386;2022-10-15T06:56:19;2.50;;;2.50;;
7110;SDS011;3597;42.650;23.386;2022-10-15T06:58:44;2.13;;;2.03;;
7110;SDS011;3597;42.650;23.386;2022-10-15T07:01:10;2.17;;;2.07;;
7110;SDS011;3597;42.650;23.386;2022-10-15T07:03:35;2.30;;;2.30;;
7110;SDS011;3597;42.650;23.386;2022-10-15T07:06:03;2.20;;;2.20;;
7110;SDS011;3597;42.650;23.386;2022-10-15T07:08:30;3.03;;;2.93;;
7110;SDS011;3597;42.650;23.386;2022-10-15T07:10:56;2.30;;;2.23;;
7110;SDS011;3597;42.650;23.386;2022-10-15T07:13:21;2.40;;;2.40;;
7110;SDS011;3597;42.650;23.386;2022-10-15T07:15:46;2.50;;;2.50;;
7110;SDS011;3597;42.650;23.386;2022-10-15T07:18:17;2.40;;;2.40;;
7110;SDS011;3597;42.650;23.386;2022-10-15T07:20:43;3.00;;;2.77;;
7110;SDS011;3597;42.650;23.386;2022-10-15T07:23:08;2.20;;;2.20;;
7110;SDS011;3597;42.650;23.386;2022-10-15T07:25:34;2.47;;;2.37;;
7110;SDS011;3597;42.650;23.386;2022-10-15T07:27:59;2.13;;;2.13;;
7110;SDS011;3597;42.650;23.386;2022-10-15T07:30:25;2.73;;;2.60;;
7110;SDS011;3597;42.650;23.386;2022-10-15T07:32:51;2.70;;;2.70;;
7110;SDS011;3597;42.650;23.386;2022-10-15T07:35:17;2.90;;;2.90;;
7110;SDS011;3597;42.650;23.386;2022-10-15T07:37:42;3.57;;;3.57;;
7110;SDS011;3597;42.650;23.386;2022-10-15T07:40:08;3.50;;;3.50;;
7110;SDS011;3597;42.650;23.386;2022-10-15T07:42:34;3.33;;;3.33;;
7110;SDS011;3597;42.650;23.386;2022-10-15T07:44:59;3.93;;;3.93;;
7110;SDS011;3597;42.650;23.386;2022-10-15T07:47:24;4.60;;;4.50;;
7110;SDS011;3597;42.650;23.386;2022-10-15T07:49:50;4.47;;;4.40;;
7110;SDS011;3597;42.650;23.386;2022-10-15T07:52:15;4.70;;;4.70;;
7110;SDS011;3597;42.650;23.386;2022-10-15T07:54:40;4.13;;;4.13;;
7110;SDS011;3597;42.650;23.386;2022-10-15T07:57:06;4.03;;;3.93;;
7110;SDS011;3597;42.650;23.386;2022-10-15T07:59:32;3.37;;;3.37;;
7110;SDS011;3597;42.650;23.386;2022-10-15T08:01:58;3.90;;;3.90;;
7110;SDS011;3597;42.650;23.386;2022-10-15T08:04:23;3.40;;;3.30;;
7110;SDS011;3597;42.650;23.386;2022-10-15T08:06:48;3.20;;;3.20;;
7110;SDS011;3597;42.650;23.386;2022-10-15T08:09:14;3.37;;;3.37;;
7110;SDS011;3597;42.650;23.386;2022-10-15T08:11:39;3.77;;;3.70;;
7110;SDS011;3597;42.650;23.386;2022-10-15T08:14:05;2.97;;;2.97;;
7110;SDS011;3597;42.650;23.386;2022-10-15T08:16:30;3.60;;;3.50;;
7110;SDS011;3597;42.650;23.386;2022-10-15T08:18:56;3.73;;;3.63;;
7110;SDS011;3597;42.650;23.386;2022-10-15T08:21:21;4.27;;;4.27;;
7110;SDS011;3597;42.650;23.386;2022-10-15T08:23:47;3.80;;;3.70;;
7110;SDS011;3597;42.650;23.386;2022-10-15T08:26:12;3.93;;;3.87;;
7110;SDS011;3597;42.650;23.386;2022-10-15T08:28:38;4.60;;;4.50;;
7110;SDS011;3597;42.650;23.386;2022-10-15T08:31:03;3.73;;;3.73;;
7110;SDS011;3597;42.650;23.386;2022-10-15T08:33:29;3.47;;;3.47;;
7110;SDS011;3597;42.650;23.386;2022-10-15T08:35:55;3.13;;;3.13;;
7110;SDS011;3597;42.650;23.386;2022-10-15T08:38:20;2.83;;;2.83;;
7110;SDS011;3597;42.650;23.386;2022-10-15T08:40:49;3.20;;;3.20;;
7110;SDS011;3597;42.650;23.386;2022-10-15T08:43:18;3.40;;;3.40;;
7110;SDS011;3597;42.650;23.386;2022-10-15T08:45:47;3.30;;;3.30;;
7110;SDS011;3597;42.650;23.386;2022-10-15T08:48:23;3.43;;;3.33;;
7110;SDS011;3597;42.650;23.386;2022-10-15T08:51:02;3.30;;;3.20;;
7110;SDS011;3597;42.650;23.386;2022-10-15T08:53:35;3.47;;;3.40;;
7110;SDS011;3597;42.650;23.386;2022-10-15T08:56:10;3.13;;;3.13;;
7110;SDS011;3597;42.650;23.386;2022-10-15T08:58:45;3.07;;;3.07;;
7110;SDS011;3597;42.650;23.386;2022-10-15T09:01:35;2.83;;;2.83;;
7110;SDS011;3597;42.650;23.386;2022-10-15T09:06:48;2.40;;;2.40;;
7110;SDS011;3597;42.650;23.386;2022-10-15T09:14:38;2.10;;;2.10;;
7110;SDS011;3597;42.650;23.386;2022-10-15T09:17:14;2.57;;;2.57;;
7110;SDS011;3597;42.650;23.386;2022-10-15T09:19:44;2.13;;;2.13;;
7110;SDS011;3597;42.650;23.386;2022-10-15T09:22:14;2.30;;;2.30;;
7110;SDS011;3597;42.650;23.386;2022-10-15T09:24:42;2.23;;;2.23;;
7110;SDS011;3597;42.650;23.386;2022-10-15T09:27:09;2.40;;;2.40;;
7110;SDS011;3597;42.650;23.386;2022-10-15T09:33:07;2.63;;;2.63;;
7110;SDS011;3597;42.650;23.386;2022-10-15T09:35:40;2.17;;;2.17;;
7110;SDS011;3597;42.650;23.386;2022-10-15T09:40:54;2.33;;;2.33;;
7110;SDS011;3597;42.650;23.386;2022-10-15T09:43:59;2.43;;;2.40;;
7110;SDS011;3597;42.650;23.386;2022-10-15T09:46:26;2.27;;;2.27;;
7110;SDS011;3597;42.650;23.386;2022-10-15T09:49:02;2.50;;;2.40;;
7110;SDS011;3597;42.650;23.386;2022-10-15T09:51:43;2.60;;;2.60;;
7110;SDS011;3597;42.650;23.386;2022-10-15T09:54:16;2.60;;;2.60;;
7110;SDS011;3597;42.650;23.386;2022-10-15T09:56:47;2.50;;;2.50;;
7110;SDS011;3597;42.650;23.386;2022-10-15T09:59:16;2.80;;;2.80;;
7110;SDS011;3597;42.650;23.386;2022-10-15T10:01:59;2.50;;;2.50;;
7110;SDS011;3597;42.650;23.386;2022-10-15T10:04:27;2.30;;;2.30;;
7110;SDS011;3597;42.650;23.386;2022-10-15T10:06:57;2.77;;;2.77;;
7110;SDS011;3597;42.650;23.386;2022-10-15T10:12:20;2.40;;;2.40;;
7110;SDS011;3597;42.650;23.386;2022-10-15T10:14:53;2.10;;;2.10;;
7110;SDS011;3597;42.650;23.386;2022-10-15T10:17:24;2.90;;;2.90;;
7110;SDS011;3597;42.650;23.386;2022-10-15T10:22:50;2.80;;;2.80;;
7110;SDS011;3597;42.650;23.386;2022-10-15T10:28:39;2.77;;;2.67;;
7110;SDS011;3597;42.650;23.386;2022-10-15T10:33:25;2.37;;;2.37;;
7110;SDS011;3597;42.650;23.386;2022-10-15T10:35:52;2.27;;;2.27;;
7110;SDS011;3597;42.650;23.386;2022-10-15T10:38:25;2.43;;;2.43;;
7110;SDS011;3597;42.650;23.386;2022-10-15T10:40:54;2.17;;;2.17;;
7110;SDS011;3597;42.650;23.386;2022-10-15T10:43:26;2.13;;;2.13;;
7110;SDS011;3597;42.650;23.386;2022-10-15T10:46:00;2.40;;;2.40;;
7110;SDS011;3597;42.650;23.386;2022-10-15T10:48:40;1.90;;;1.90;;
7110;SDS011;3597;42.650;23.386;2022-10-15T10:53:43;2.20;;;2.20;;
7110;SDS011;3597;42.650;23.386;2022-10-15T10:56:12;1.83;;;1.83;;
7110;SDS011;3597;42.650;23.386;2022-10-15T10:58:39;2.07;;;2.07;;
7110;SDS011;3597;42.650;23.386;2022-10-15T11:01:05;2.10;;;2.10;;
7110;SDS011;3597;42.650;23.386;2022-10-15T11:03:34;1.83;;;1.83;;
7110;SDS011;3597;42.650;23.386;2022-10-15T11:11:25;1.87;;;1.87;;
7110;SDS011;3597;42.650;23.386;2022-10-15T11:16:49;1.80;;;1.80;;
7110;SDS011;3597;42.650;23.386;2022-10-15T11:25:02;1.70;;;1.70;;
7110;SDS011;3597;42.650;23.386;2022-10-15T11:33:11;1.80;;;1.80;;
7110;SDS011;3597;42.650;23.386;2022-10-15T11:35:56;1.60;;;1.60;;
7110;SDS011;3597;42.650;23.386;2022-10-15T11:46:33;1.83;;;1.83;;
7110;SDS011;3597;42.650;23.386;2022-10-15T11:49:20;2.20;;;2.20;;
7110;SDS011;3597;42.650;23.386;2022-10-15T11:52:42;2.20;;;2.20;;
7110;SDS011;3597;42.650;23.386;2022-10-15T11:57:25;2.03;;;2.03;;
7110;SDS011;3597;42.650;23.386;2022-10-15T11:59:59;1.70;;;1.70;;
7110;SDS011;3597;42.650;23.386;2022-10-15T12:02:28;2.10;;;2.10;;
7110;SDS011;3597;42.650;23.386;2022-10-15T12:04:57;1.70;;;1.70;;
7110;SDS011;3597;42.650;23.386;2022-10-15T12:07:26;1.77;;;1.77;;
7110;SDS011;3597;42.650;23.386;2022-10-15T12:09:55;1.80;;;1.80;;
7110;SDS011;3597;42.650;23.386;2022-10-15T12:20:32;2.00;;;2.00;;
7110;SDS011;3597;42.650;23.386;2022-10-15T12:22:58;1.93;;;1.93;;
7110;SDS011;3597;42.650;23.386;2022-10-15T12:25:46;2.20;;;2.10;;
7110;SDS011;3597;42.650;23.386;2022-10-15T12:28:18;1.90;;;1.90;;
7110;SDS011;3597;42.650;23.386;2022-10-15T12:30:52;1.90;;;1.90;;
7110;SDS011;3597;42.650;23.386;2022-10-15T12:33:32;1.73;;;1.73;;
7110;SDS011;3597;42.650;23.386;2022-10-15T12:35:59;1.93;;;1.93;;
7110;SDS011;3597;42.650;23.386;2022-10-15T12:38:31;1.87;;;1.87;;
7110;SDS011;3597;42.650;23.386;2022-10-15T12:40:59;2.00;;;2.00;;
7110;SDS011;3597;42.650;23.386;2022-10-15T12:43:27;1.93;;;1.93;;
7110;SDS011;3597;42.650;23.386;2022-10-15T12:45:55;1.80;;;1.80;;
7110;SDS011;3597;42.650;23.386;2022-10-15T12:48:29;2.13;;;2.13;;
7110;SDS011;3597;42.650;23.386;2022-10-15T12:53:41;2.03;;;2.03;;
7110;SDS011;3597;42.650;23.386;2022-10-15T12:58:39;1.73;;;1.70;;
7110;SDS011;3597;42.650;23.386;2022-10-15T13:01:05;2.10;;;2.10;;
7110;SDS011;3597;42.650;23.386;2022-10-15T13:03:54;2.00;;;2.00;;
7110;SDS011;3597;42.650;23.386;2022-10-15T13:08:56;1.90;;;1.90;;
7110;SDS011;3597;42.650;23.386;2022-10-15T13:11:35;1.80;;;1.80;;
7110;SDS011;3597;42.650;23.386;2022-10-15T13:16:36;1.80;;;1.80;;
7110;SDS011;3597;42.650;23.386;2022-10-15T13:19:01;2.03;;;2.03;;
7110;SDS011;3597;42.650;23.386;2022-10-15T13:24:23;1.80;;;1.80;;
7110;SDS011;3597;42.650;23.386;2022-10-15T13:26:50;1.93;;;1.93;;
7110;SDS011;3597;42.650;23.386;2022-10-15T13:29:17;1.70;;;1.70;;
7110;SDS011;3597;42.650;23.386;2022-10-15T13:31:43;2.00;;;2.00;;
7110;SDS011;3597;42.650;23.386;2022-10-15T13:36:57;2.10;;;2.10;;
7110;SDS011;3597;42.650;23.386;2022-10-15T13:39:34;1.93;;;1.93;;
7110;SDS011;3597;42.650;23.386;2022-10-15T13:44:42;2.03;;;2.03;;
7110;SDS011;3597;42.650;23.386;2022-10-15T13:52:49;1.90;;;1.90;;
7110;SDS011;3597;42.650;23.386;2022-10-15T13:55:18;1.90;;;1.90;;
7110;SDS011;3597;42.650;23.386;2022-10-15T13:57:46;1.60;;;1.50;;
7110;SDS011;3597;42.650;23.386;2022-10-15T14:00:27;1.63;;;1.63;;
7110;SDS011;3597;42.650;23.386;2022-10-15T14:05:41;1.80;;;1.80;;
7110;SDS011;3597;42.650;23.386;2022-10-15T14:08:14;1.80;;;1.80;;
7110;SDS011;3597;42.650;23.386;2022-10-15T14:10:41;2.10;;;2.10;;
7110;SDS011;3597;42.650;23.386;2022-10-15T14:13:08;1.80;;;1.80;;
7110;SDS011;3597;42.650;23.386;2022-10-15T14:18:15;1.80;;;1.80;;
7110;SDS011;3597;42.650;23.386;2022-10-15T14:20:45;1.80;;;1.80;;
7110;SDS011;3597;42.650;23.386;2022-10-15T14:23:24;1.67;;;1.67;;
7110;SDS011;3597;42.650;23.386;2022-10-15T14:25:50;1.97;;;1.97;;
7110;SDS011;3597;42.650;23.386;2022-10-15T14:28:18;1.80;;;1.80;;
7110;SDS011;3597;42.650;23.386;2022-10-15T14:30:45;1.77;;;1.77;;
7110;SDS011;3597;42.650;23.386;2022-10-15T14:41:57;1.67;;;1.67;;
7110;SDS011;3597;42.650;23.386;2022-10-15T14:44:25;1.90;;;1.90;;
7110;SDS011;3597;42.650;23.386;2022-10-15T14:46:52;1.50;;;1.50;;
7110;SDS011;3597;42.650;23.386;2022-10-15T14:49:29;1.70;;;1.60;;
7110;SDS011;3597;42.650;23.386;2022-10-15T14:54:47;1.50;;;1.50;;
7110;SDS011;3597;42.650;23.386;2022-10-15T14:59:47;1.40;;;1.40;;
7110;SDS011;3597;42.650;23.386;2022-10-15T15:02:13;1.70;;;1.70;;
7110;SDS011;3597;42.650;23.386;2022-10-15T15:04:41;1.50;;;1.50;;
7110;SDS011;3597;42.650;23.386;2022-10-15T15:07:15;1.40;;;1.40;;
7110;SDS011;3597;42.650;23.386;2022-10-15T15:09:48;1.50;;;1.50;;
7110;SDS011;3597;42.650;23.386;2022-10-15T15:12:16;1.50;;;1.50;;
7110;SDS011;3597;42.650;23.386;2022-10-15T15:14:43;1.33;;;1.33;;
7110;SDS011;3597;42.650;23.386;2022-10-15T15:17:30;1.50;;;1.50;;
7110;SDS011;3597;42.650;23.386;2022-10-15T15:19:55;1.40;;;1.40;;
7110;SDS011;3597;42.650;23.386;2022-10-15T15:22:26;1.43;;;1.43;;
7110;SDS011;3597;42.650;23.386;2022-10-15T15:24:54;1.70;;;1.70;;
7110;SDS011;3597;42.650;23.386;2022-10-15T15:27:21;1.70;;;1.47;;
7110;SDS011;3597;42.650;23.386;2022-10-15T15:29:51;1.63;;;1.63;;
7110;SDS011;3597;42.650;23.386;2022-10-15T15:32:17;2.58;;;2.58;;
7110;SDS011;3597;42.650;23.386;2022-10-15T15:34:43;1.67;;;1.67;;
7110;SDS011;3597;42.650;23.386;2022-10-15T15:37:21;1.80;;;1.80;;
7110;SDS011;3597;42.650;23.386;2022-10-15T15:39:48;2.23;;;2.23;;
7110;SDS011;3597;42.650;23.386;2022-10-15T15:42:15;2.33;;;2.23;;
7110;SDS011;3597;42.650;23.386;2022-10-15T15:44:42;2.00;;;2.00;;
7110;SDS011;3597;42.650;23.386;2022-10-15T15:47:07;2.00;;;2.00;;
7110;SDS011;3597;42.650;23.386;2022-10-15T15:49:33;2.23;;;2.23;;
7110;SDS011;3597;42.650;23.386;2022-10-15T15:51:59;2.27;;;2.17;;
7110;SDS011;3597;42.650;23.386;2022-10-15T15:54:24;2.13;;;2.03;;
7110;SDS011;3597;42.650;23.386;2022-10-15T15:56:50;2.20;;;2.20;;
7110;SDS011;3597;42.650;23.386;2022-10-15T15:59:15;2.17;;;2.17;;
7110;SDS011;3597;42.650;23.386;2022-10-15T16:01:43;2.07;;;2.07;;
7110;SDS011;3597;42.650;23.386;2022-10-15T16:04:09;2.20;;;2.20;;
7110;SDS011;3597;42.650;23.386;2022-10-15T16:06:36;1.90;;;1.90;;
7110;SDS011;3597;42.650;23.386;2022-10-15T16:09:02;1.77;;;1.77;;
7110;SDS011;3597;42.650;23.386;2022-10-15T16:11:29;1.67;;;1.67;;
7110;SDS011;3597;42.650;23.386;2022-10-15T16:13:55;1.97;;;1.90;;
7110;SDS011;3597;42.650;23.386;2022-10-15T16:16:20;1.73;;;1.73;;
7110;SDS011;3597;42.650;23.386;2022-10-15T16:18:46;1.60;;;1.60;;
7110;SDS011;3597;42.650;23.386;2022-10-15T16:21:11;1.77;;;1.77;;
7110;SDS011;3597;42.650;23.386;2022-10-15T16:23:36;1.90;;;1.90;;
7110;SDS011;3597;42.650;23.386;2022-10-15T16:26:02;1.90;;;1.90;;
7110;SDS011;3597;42.650;23.386;2022-10-15T16:28:27;1.80;;;1.80;;
7110;SDS011;3597;42.650;23.386;2022-10-15T16:30:53;1.70;;;1.70;;
7110;SDS011;3597;42.650;23.386;2022-10-15T16:33:18;2.00;;;2.00;;
7110;SDS011;3597;42.650;23.386;2022-10-15T16:35:44;1.73;;;1.73;;
7110;SDS011;3597;42.650;23.386;2022-10-15T16:38:15;1.67;;;1.67;;
7110;SDS011;3597;42.650;23.386;2022-10-15T16:40:40;1.90;;;1.90;;
7110;SDS011;3597;42.650;23.386;2022-10-15T16:43:05;1.97;;;1.97;;
7110;SDS011;3597;42.650;23.386;2022-10-15T16:45:31;2.00;;;2.00;;
7110;SDS011;3597;42.650;23.386;2022-10-15T16:47:57;1.80;;;1.80;;
7110;SDS011;3597;42.650;23.386;2022-10-15T16:50:22;1.90;;;1.90;;
7110;SDS011;3597;42.650;23.386;2022-10-15T16:52:47;1.93;;;1.93;;
7110;SDS011;3597;42.650;23.386;2022-10-15T16:55:13;1.90;;;1.90;;
7110;SDS011;3597;42.650;23.386;2022-10-15T16:57:40;1.80;;;1.80;;
7110;SDS011;3597;42.650;23.386;2022-10-15T17:00:06;1.97;;;1.90;;
7110;SDS011;3597;42.650;23.386;2022-10-15T17:02:32;2.13;;;2.13;;
7110;SDS011;3597;42.650;23.386;2022-10-15T17:04:57;2.00;;;2.00;;
7110;SDS011;3597;42.650;23.386;2022-10-15T17:07:22;2.10;;;2.10;;
7110;SDS011;3597;42.650;23.386;2022-10-15T17:09:48;1.93;;;1.93;;
7110;SDS011;3597;42.650;23.386;2022-10-15T17:12:13;2.10;;;2.10;;
7110;SDS011;3597;42.650;23.386;2022-10-15T17:14:40;2.27;;;2.17;;
7110;SDS011;3597;42.650;23.386;2022-10-15T17:17:05;2.27;;;2.27;;
7110;SDS011;3597;42.650;23.386;2022-10-15T17:19:31;2.30;;;2.30;;
7110;SDS011;3597;42.650;23.386;2022-10-15T17:21:57;2.20;;;2.20;;
7110;SDS011;3597;42.650;23.386;2022-10-15T17:24:22;2.63;;;2.63;;
7110;SDS011;3597;42.650;23.386;2022-10-15T17:26:48;2.20;;;2.20;;
7110;SDS011;3597;42.650;23.386;2022-10-15T17:29:17;2.40;;;2.40;;